sensor_id;sensor_type;location;lat;lon;timestamp;pressure;altitude;pressure_sealevel;temperature;humidity
30463;BME280;17256;43.618;25.336;2022-12-10T00:00:09;100065.31;;;6.32;100.00
30463;BME280;17256;43.618;25.336;2022-12-10T00:03:24;99769.03;;;4.38;100.00
30463;BME280;17256;43.618;25.336;2022-12-10T00:07:15;99763.13;;;4.57;100.00
30463;BME280;17256;43.618;25.336;2022-12-10T00:11:18;99660.53;;;3.82;100.00
30463;BME280;17256;43.618;25.336;2022-12-10T00:15:10;99657.81;;;3.82;100.00
30463;BME280;17256;43.618;25.336;2022-12-10T00:19:05;99616.91;;;3.53;100.00
30463;BME280;17256;43.618;25.336;2022-12-10T00:22:37;99898.69;;;5.22;100.00
30463;BME280;17256;43.618;25.336;2022-12-10T00:26:14;99790.44;;;4.63;100.00
30463;BME280;17256;43.618;25.336;2022-12-10T00:29:42;99645.56;;;3.86;100.00
30463;BME280;17256;43.618;25.336;2022-12-10T00:33:21;99606.59;;;3.48;100.00
30463;BME280;17256;43.618;25.336;2022-12-10T00:37:22;99618.81;;;3.44;100.00
30463;BME280;17256;43.618;25.336;2022-12-10T00:41:05;99634.06;;;3.53;100.00
30463;BME280;17256;43.618;25.336;2022-12-10T00:44:46;99609.47;;;3.47;100.00
30463;BME280;17256;43.618;25.336;2022-12-10T00:48:37;99734.28;;;3.94;100.00
30463;BME280;17256;43.618;25.336;2022-12-10T00:53:08;100057.63;;;5.98;100.00
30463;BME280;17256;43.618;25.336;2022-12-10T00:56:49;99772.34;;;4.25;100.00
30463;BME280;17256;43.618;25.336;2022-12-10T01:00:40;99622.19;;;3.46;100.00
30463;BME280;17256;43.618;25.336;2022-12-10T01:19:17;99937.97;;;5.42;100.00
30463;BME280;17256;43.618;25.336;2022-12-10T01:22:31;99876.19;;;5.05;100.00
30463;BME280;17256;43.618;25.336;2022-12-10T01:25:32;100031.50;;;6.03;100.00
30463;BME280;17256;43.618;25.336;2022-12-10T01:29:08;100026.34;;;6.08;100.00
30463;BME280;17256;43.618;25.336;2022-12-10T01:32:49;100016.19;;;6.17;100.00
30463;BME280;17256;43.618;25.336;2022-12-10T01:41:54;99863.03;;;4.86;100.00
30463;BME280;17256;43.618;25.336;2022-12-10T01:45:29;99832.81;;;4.58;100.00
30463;BME280;17256;43.618;25.336;2022-12-10T01:48:22;99879.31;;;4.94;100.00
30463;BME280;17256;43.618;25.336;2022-12-10T01:55:46;100037.72;;;5.89;100.00
30463;BME280;17256;43.618;25.336;2022-12-10T02:11:17;99683.47;;;3.80;100.00
30463;BME280;17256;43.618;25.336;2022-12-10T02:15:06;99600.88;;;3.35;100.00
30463;BME280;17256;43.618;25.336;2022-12-10T02:22:56;99748.38;;;4.28;100.00
30463;BME280;17256;43.618;25.336;2022-12-10T02:30:21;99569.28;;;3.42;100.00
30463;BME280;17256;43.618;25.336;2022-12-10T02:33:29;99623.59;;;3.73;100.00
30463;BME280;17256;43.618;25.336;2022-12-10T02:36:23;99721.06;;;4.45;100.00
30463;BME280;17256;43.618;25.336;2022-12-10T02:39:53;99656.97;;;3.82;100.00
30463;BME280;17256;43.618;25.336;2022-12-10T02:43:55;99680.66;;;4.19;100.00
30463;BME280;17256;43.618;25.336;2022-12-10T02:48:07;99779.00;;;4.68;100.00
30463;BME280;17256;43.618;25.336;2022-12-10T02:52:21;100028.38;;;6.29;100.00
30463;BME280;17256;43.618;25.336;2022-12-10T03:03:25;99562.81;;;3.74;100.00
30463;BME280;17256;43.618;25.336;2022-12-10T03:06:55;99690.13;;;4.46;100.00
30463;BME280;17256;43.618;25.336;2022-12-10T03:11:05;99995.81;;;6.42;100.00
30463;BME280;17256;43.618;25.336;2022-12-10T03:14:41;99559.78;;;3.69;100.00
30463;BME280;17256;43.618;25.336;2022-12-10T03:18:14;99989.66;;;6.48;100.00
30463;BME280;17256;43.618;25.336;2022-12-10T03:22:11;99720.19;;;4.52;100.00
30463;BME280;17256;43.618;25.336;2022-12-10T03:26:17;100009.28;;;6.44;100.00
30463;BME280;17256;43.618;25.336;2022-12-10T03:29:54;99560.44;;;3.94;100.00
30463;BME280;17256;43.618;25.336;2022-12-10T03:33:59;99989.44;;;6.65;100.00
30463;BME280;17256;43.618;25.336;2022-12-10T03:38:12;99986.72;;;6.65;100.00
30463;BME280;17256;43.618;25.336;2022-12-10T03:46:14;99856.84;;;5.75;100.00
30463;BME280;17256;43.618;25.336;2022-12-10T03:49:53;99947.13;;;6.39;100.00
30463;BME280;17256;43.618;25.336;2022-12-10T03:53:43;99728.97;;;4.77;100.00
30463;BME280;17256;43.618;25.336;2022-12-10T03:56:44;99602.69;;;4.19;100.00
30463;BME280;17256;43.618;25.336;2022-12-10T04:04:28;99669.59;;;4.81;100.00
30463;BME280;17256;43.618;25.336;2022-12-10T04:12:26;99699.38;;;4.59;100.00
30463;BME280;17256;43.618;25.336;2022-12-10T04:16:38;99685.66;;;4.53;100.00
30463;BME280;17256;43.618;25.336;2022-12-10T04:20:08;99541.97;;;3.89;100.00
30463;BME280;17256;43.618;25.336;2022-12-10T04:24:14;99536.00;;;3.94;100.00
30463;BME280;17256;43.618;25.336;2022-12-10T04:28:37;99561.44;;;4.01;100.00
30463;BME280;17256;43.618;25.336;2022-12-10T04:36:12;99987.28;;;6.75;100.00
30463;BME280;17256;43.618;25.336;2022-12-10T04:40:23;99968.91;;;6.69;100.00
30463;BME280;17256;43.618;25.336;2022-12-10T04:44:41;99533.00;;;4.26;100.00
30463;BME280;17256;43.618;25.336;2022-12-10T04:48:24;99802.22;;;5.69;100.00
30463;BME280;17256;43.618;25.336;2022-12-10T04:52:22;99537.38;;;4.13;100.00
30463;BME280;17256;43.618;25.336;2022-12-10T05:07:57;99551.59;;;3.77;100.00
30463;BME280;17256;43.618;25.336;2022-12-10T05:12:14;99971.88;;;6.53;100.00
30463;BME280;17256;43.618;25.336;2022-12-10T05:16:26;99973.81;;;6.73;100.00
30463;BME280;17256;43.618;25.336;2022-12-10T05:20:06;99609.97;;;4.42;100.00
30463;BME280;17256;43.618;25.336;2022-12-10T05:23:41;99567.81;;;4.08;100.00
30463;BME280;17256;43.618;25.336;2022-12-10T05:30:14;99735.81;;;5.25;100.00
30463;BME280;17256;43.618;25.336;2022-12-10T05:32:40;99746.25;;;5.37;100.00
30463;BME280;17256;43.618;25.336;2022-12-10T05:35:05;99820.34;;;5.62;100.00
30463;BME280;17256;43.618;25.336;2022-12-10T05:37:31;99838.50;;;5.84;100.00
30463;BME280;17256;43.618;25.336;2022-12-10T05:39:57;99797.56;;;5.77;100.00
30463;BME280;17256;43.618;25.336;2022-12-10T05:42:22;99782.00;;;5.34;100.00
30463;BME280;17256;43.618;25.336;2022-12-10T05:44:48;99779.09;;;5.35;100.00
30463;BME280;17256;43.618;25.336;2022-12-10T05:47:13;99797.91;;;5.60;100.00
30463;BME280;17256;43.618;25.336;2022-12-10T05:49:39;99879.38;;;5.84;100.00
30463;BME280;17256;43.618;25.336;2022-12-10T05:52:04;99835.56;;;5.56;100.00
30463;BME280;17256;43.618;25.336;2022-12-10T05:54:30;99783.88;;;5.33;100.00
30463;BME280;17256;43.618;25.336;2022-12-10T05:56:56;99756.44;;;5.20;100.00
30463;BME280;17256;43.618;25.336;2022-12-10T05:59:21;99813.47;;;5.36;100.00
30463;BME280;17256;43.618;25.336;2022-12-10T06:01:47;100007.78;;;6.56;100.00
30463;BME280;17256;43.618;25.336;2022-12-10T06:04:13;99896.16;;;6.10;100.00
30463;BME280;17256;43.618;25.336;2022-12-10T06:06:39;99763.66;;;5.13;100.00
30463;BME280;17256;43.618;25.336;2022-12-10T06:09:07;99817.53;;;5.55;100.00
30463;BME280;17256;43.618;25.336;2022-12-10T06:11:45;99725.84;;;5.18;100.00
30463;BME280;17256;43.618;25.336;2022-12-10T06:14:11;99786.75;;;5.54;100.00
30463;BME280;17256;43.618;25.336;2022-12-10T06:16:38;99788.69;;;5.61;100.00
30463;BME280;17256;43.618;25.336;2022-12-10T06:19:05;99795.38;;;5.58;100.00
30463;BME280;17256;43.618;25.336;2022-12-10T06:21:31;99710.47;;;5.10;100.00
30463;BME280;17256;43.618;25.336;2022-12-10T06:23:56;99756.28;;;5.36;100.00
30463;BME280;17256;43.618;25.336;2022-12-10T06:26:29;99802.13;;;5.62;100.00
30463;BME280;17256;43.618;25.336;2022-12-10T06:28:55;99711.78;;;5.14;100.00
30463;BME280;17256;43.618;25.336;2022-12-10T06:31:22;99820.66;;;5.81;100.00
30463;BME280;17256;43.618;25.336;2022-12-10T06:33:48;99750.69;;;5.52;100.00
30463;BME280;17256;43.618;25.336;2022-12-10T06:36:24;99840.59;;;6.11;100.00
30463;BME280;17256;43.618;25.336;2022-12-10T06:38:50;99707.19;;;5.30;100.00
30463;BME280;17256;43.618;25.336;2022-12-10T06:41:17;99764.28;;;5.82;100.00
30463;BME280;17256;43.618;25.336;2022-12-10T06:43:44;99813.72;;;6.08;100.00
30463;BME280;17256;43.618;25.336;2022-12-10T06:46:12;99821.66;;;6.39;100.00
30463;BME280;17256;43.618;25.336;2022-12-10T06:48:40;99914.44;;;7.12;100.00
30463;BME280;17256;43.618;25.336;2022-12-10T06:51:07;99764.91;;;6.28;100.00
30463;BME280;17256;43.618;25.336;2022-12-10T06:53:35;99553.09;;;4.99;100.00
30463;BME280;17256;43.618;25.336;2022-12-10T06:56:02;99817.44;;;6.37;100.00
30463;BME280;17256;43.618;25.336;2022-12-10T06:58:30;99756.69;;;6.07;100.00
30463;BME280;17256;43.618;25.336;2022-12-10T07:01:29;99925.50;;;7.25;100.00
30463;BME280;17256;43.618;25.336;2022-12-10T07:03:56;99788.84;;;6.47;100.00
30463;BME280;17256;43.618;25.336;2022-12-10T07:06:22;99894.88;;;7.08;100.00
30463;BME280;17256;43.618;25.336;2022-12-10T07:08:49;99759.63;;;6.27;100.00
30463;BME280;17256;43.618;25.336;2022-12-10T07:11:23;99866.19;;;6.97;100.00
30463;BME280;17256;43.618;25.336;2022-12-10T07:13:59;99718.84;;;6.18;100.00
30463;BME280;17256;43.618;25.336;2022-12-10T07:16:29;99753.31;;;6.62;100.00
30463;BME280;17256;43.618;25.336;2022-12-10T07:18:56;99819.50;;;6.92;100.00
30463;BME280;17256;43.618;25.336;2022-12-10T07:21:32;99836.28;;;7.10;100.00
30463;BME280;17256;43.618;25.336;2022-12-10T07:24:02;99741.09;;;6.79;100.00
30463;BME280;17256;43.618;25.336;2022-12-10T07:26:29;99647.50;;;6.36;100.00
30463;BME280;17256;43.618;25.336;2022-12-10T07:28:55;99911.56;;;7.90;100.00
30463;BME280;17256;43.618;25.336;2022-12-10T07:31:21;99743.94;;;6.93;100.00
30463;BME280;17256;43.618;25.336;2022-12-10T07:33:49;99922.47;;;7.84;100.00
30463;BME280;17256;43.618;25.336;2022-12-10T07:36:22;99918.09;;;7.89;100.00
30463;BME280;17256;43.618;25.336;2022-12-10T07:38:49;99763.66;;;7.16;100.00
30463;BME280;17256;43.618;25.336;2022-12-10T07:41:15;99749.28;;;7.01;100.00
30463;BME280;17256;43.618;25.336;2022-12-10T07:43:42;99653.00;;;6.64;100.00
30463;BME280;17256;43.618;25.336;2022-12-10T07:46:15;99905.94;;;8.26;100.00
30463;BME280;17256;43.618;25.336;2022-12-10T07:48:43;99693.38;;;6.97;100.00
30463;BME280;17256;43.618;25.336;2022-12-10T07:51:10;99908.34;;;8.08;100.00
30463;BME280;17256;43.618;25.336;2022-12-10T07:53:35;99828.44;;;7.78;100.00
30463;BME280;17256;43.618;25.336;2022-12-10T07:56:03;99675.81;;;7.06;100.00
30463;BME280;17256;43.618;25.336;2022-12-10T07:58:29;99756.72;;;7.41;100.00
30463;BME280;17256;43.618;25.336;2022-12-10T08:00:55;99576.63;;;6.15;100.00
30463;BME280;17256;43.618;25.336;2022-12-10T08:03:21;99782.69;;;7.31;100.00
30463;BME280;17256;43.618;25.336;2022-12-10T08:05:59;99863.91;;;7.99;100.00
30463;BME280;17256;43.618;25.336;2022-12-10T08:08:25;99757.38;;;7.44;100.00
30463;BME280;17256;43.618;25.336;2022-12-10T08:10:51;99821.13;;;7.85;100.00
30463;BME280;17256;43.618;25.336;2022-12-10T08:13:16;99768.22;;;7.65;100.00
30463;BME280;17256;43.618;25.336;2022-12-10T08:15:42;99806.25;;;7.94;100.00
30463;BME280;17256;43.618;25.336;2022-12-10T08:18:07;99750.53;;;7.61;100.00
30463;BME280;17256;43.618;25.336;2022-12-10T08:20:33;99767.34;;;7.58;100.00
30463;BME280;17256;43.618;25.336;2022-12-10T08:23:00;99826.53;;;8.13;100.00
30463;BME280;17256;43.618;25.336;2022-12-10T08:25:26;99794.13;;;8.10;100.00
30463;BME280;17256;43.618;25.336;2022-12-10T08:27:53;99821.69;;;8.43;100.00
30463;BME280;17256;43.618;25.336;2022-12-10T08:30:20;99899.56;;;8.95;100.00
30463;BME280;17256;43.618;25.336;2022-12-10T08:32:45;99755.28;;;8.28;100.00
30463;BME280;17256;43.618;25.336;2022-12-10T08:35:11;99811.63;;;8.63;100.00
30463;BME280;17256;43.618;25.336;2022-12-10T08:37:40;99753.94;;;8.65;100.00
30463;BME280;17256;43.618;25.336;2022-12-10T08:40:21;99708.88;;;8.54;100.00
30463;BME280;17256;43.618;25.336;2022-12-10T08:42:51;99693.72;;;8.65;100.00
30463;BME280;17256;43.618;25.336;2022-12-10T08:45:25;99818.91;;;9.44;100.00
30463;BME280;17256;43.618;25.336;2022-12-10T08:47:51;99746.84;;;9.23;100.00
30463;BME280;17256;43.618;25.336;2022-12-10T08:50:17;99713.31;;;9.35;100.00
30463;BME280;17256;43.618;25.336;2022-12-10T08:52:42;99681.03;;;9.50;100.00
30463;BME280;17256;43.618;25.336;2022-12-10T08:55:08;99724.38;;;9.79;100.00
30463;BME280;17256;43.618;25.336;2022-12-10T08:57:34;99668.38;;;9.49;100.00
30463;BME280;17256;43.618;25.336;2022-12-10T08:59:59;99625.41;;;9.43;100.00
30463;BME280;17256;43.618;25.336;2022-12-10T09:02:25;99851.44;;;10.96;100.00
30463;BME280;17256;43.618;25.336;2022-12-10T09:04:51;99592.09;;;9.39;100.00
30463;BME280;17256;43.618;25.336;2022-12-10T09:07:20;99584.88;;;9.51;100.00
30463;BME280;17256;43.618;25.336;2022-12-10T09:09:46;99722.47;;;10.38;100.00
30463;BME280;17256;43.618;25.336;2022-12-10T09:12:12;99755.63;;;10.74;100.00
30463;BME280;17256;43.618;25.336;2022-12-10T09:14:37;99663.03;;;10.25;100.00
30463;BME280;17256;43.618;25.336;2022-12-10T09:17:07;99718.72;;;10.95;100.00
30463;BME280;17256;43.618;25.336;2022-12-10T09:19:33;99738.34;;;11.24;100.00
30463;BME280;17256;43.618;25.336;2022-12-10T09:22:00;99722.38;;;11.57;100.00
30463;BME280;17256;43.618;25.336;2022-12-10T09:24:25;99634.03;;;10.92;100.00
30463;BME280;17256;43.618;25.336;2022-12-10T09:27:05;99658.53;;;11.12;100.00
30463;BME280;17256;43.618;25.336;2022-12-10T09:29:31;99822.34;;;12.31;100.00
30463;BME280;17256;43.618;25.336;2022-12-10T09:31:57;99517.88;;;10.67;100.00
30463;BME280;17256;43.618;25.336;2022-12-10T09:34:26;99802.47;;;12.29;100.00
30463;BME280;17256;43.618;25.336;2022-12-10T09:36:52;99598.25;;;11.35;100.00
30463;BME280;17256;43.618;25.336;2022-12-10T09:39:18;99649.16;;;11.81;100.00
30463;BME280;17256;43.618;25.336;2022-12-10T09:45:03;99628.38;;;11.85;100.00
30463;BME280;17256;43.618;25.336;2022-12-10T09:47:44;99701.78;;;12.21;100.00
30463;BME280;17256;43.618;25.336;2022-12-10T09:50:31;99707.88;;;12.42;100.00
30463;BME280;17256;43.618;25.336;2022-12-10T09:53:00;99700.88;;;12.39;100.00
30463;BME280;17256;43.618;25.336;2022-12-10T09:55:37;99623.53;;;11.99;100.00
30463;BME280;17256;43.618;25.336;2022-12-10T09:58:11;99540.72;;;11.40;100.00
30463;BME280;17256;43.618;25.336;2022-12-10T10:00:40;99589.13;;;11.42;100.00
30463;BME280;17256;43.618;25.336;2022-12-10T10:03:12;99568.28;;;11.16;100.00
30463;BME280;17256;43.618;25.336;2022-12-10T10:05:41;99555.06;;;11.24;100.00
30463;BME280;17256;43.618;25.336;2022-12-10T10:11:08;99546.78;;;11.79;100.00
30463;BME280;17256;43.618;25.336;2022-12-10T10:13:40;99647.81;;;12.62;100.00
30463;BME280;17256;43.618;25.336;2022-12-10T10:16:37;99745.03;;;13.22;100.00
30463;BME280;17256;43.618;25.336;2022-12-10T10:19:13;99679.47;;;12.71;100.00
30463;BME280;17256;43.618;25.336;2022-12-10T10:21:43;99737.75;;;13.10;100.00
30463;BME280;17256;43.618;25.336;2022-12-10T10:24:40;99719.84;;;13.19;100.00
30463;BME280;17256;43.618;25.336;2022-12-10T10:27:20;99719.00;;;13.30;100.00
30463;BME280;17256;43.618;25.336;2022-12-10T10:29:50;99714.34;;;13.31;100.00
30463;BME280;17256;43.618;25.336;2022-12-10T10:34:44;99694.56;;;13.45;100.00
30463;BME280;17256;43.618;25.336;2022-12-10T10:37:23;99496.19;;;12.33;100.00
30463;BME280;17256;43.618;25.336;2022-12-10T10:39:52;99710.72;;;13.89;100.00
30463;BME280;17256;43.618;25.336;2022-12-10T10:45:35;99650.06;;;14.05;100.00
30463;BME280;17256;43.618;25.336;2022-12-10T10:51:15;99713.41;;;14.64;100.00
30463;BME280;17256;43.618;25.336;2022-12-10T10:53:51;99719.19;;;14.62;100.00
30463;BME280;17256;43.618;25.336;2022-12-10T10:56:25;99718.63;;;14.37;100.00
30463;BME280;17256;43.618;25.336;2022-12-10T10:59:05;99726.56;;;14.45;100.00
30463;BME280;17256;43.618;25.336;2022-12-10T11:01:50;99708.31;;;14.72;100.00
30463;BME280;17256;43.618;25.336;2022-12-10T11:04:22;99587.28;;;14.29;100.00
30463;BME280;17256;43.618;25.336;2022-12-10T11:06:51;99670.06;;;14.98;100.00
30463;BME280;17256;43.618;25.336;2022-12-10T11:09:31;99538.41;;;14.30;100.00
30463;BME280;17256;43.618;25.336;2022-12-10T11:12:20;99623.38;;;14.85;100.00
30463;BME280;17256;43.618;25.336;2022-12-10T11:14:48;99624.56;;;14.89;100.00
30463;BME280;17256;43.618;25.336;2022-12-10T11:17:18;99672.81;;;14.98;100.00
30463;BME280;17256;43.618;25.336;2022-12-10T11:20:19;99651.59;;;14.87;100.00
30463;BME280;17256;43.618;25.336;2022-12-10T11:23:12;99511.53;;;13.92;100.00
30463;BME280;17256;43.618;25.336;2022-12-10T11:49:20;99627.91;;;14.91;100.00
30463;BME280;17256;43.618;25.336;2022-12-10T11:57:39;99486.69;;;14.08;100.00
30463;BME280;17256;43.618;25.336;2022-12-10T12:00:26;99601.56;;;14.38;100.00
30463;BME280;17256;43.618;25.336;2022-12-10T12:06:04;99637.03;;;14.74;100.00
30463;BME280;17256;43.618;25.336;2022-12-10T12:14:27;99635.00;;;14.87;100.00
30463;BME280;17256;43.618;25.336;2022-12-10T12:17:10;99519.00;;;14.25;100.00
30463;BME280;17256;43.618;25.336;2022-12-10T12:20:14;99502.56;;;14.46;100.00
30463;BME280;17256;43.618;25.336;2022-12-10T12:22:50;99617.91;;;15.23;100.00
30463;BME280;17256;43.618;25.336;2022-12-10T12:28:41;99549.94;;;14.89;100.00
30463;BME280;17256;43.618;25.336;2022-12-10T12:31:14;99497.78;;;14.59;100.00
30463;BME280;17256;43.618;25.336;2022-12-10T12:34:11;99606.19;;;15.16;100.00
30463;BME280;17256;43.618;25.336;2022-12-10T12:36:41;99512.19;;;14.44;100.00
30463;BME280;17256;43.618;25.336;2022-12-10T12:39:20;99615.53;;;14.93;100.00
30463;BME280;17256;43.618;25.336;2022-12-10T12:42:10;99589.91;;;14.64;100.00
30463;BME280;17256;43.618;25.336;2022-12-10T12:50:43;99608.53;;;14.29;100.00
30463;BME280;17256;43.618;25.336;2022-12-10T12:53:20;99613.72;;;14.25;100.00
30463;BME280;17256;43.618;25.336;2022-12-10T12:58:43;99611.91;;;14.31;100.00
30463;BME280;17256;43.618;25.336;2022-12-10T13:01:16;99612.09;;;14.41;100.00
30463;BME280;17256;43.618;25.336;2022-12-10T13:03:46;99423.72;;;13.32;100.00
30463;BME280;17256;43.618;25.336;2022-12-10T13:06:23;99599.16;;;14.58;100.00
30463;BME280;17256;43.618;25.336;2022-12-10T13:17:36;99515.63;;;14.06;100.00
30463;BME280;17256;43.618;25.336;2022-12-10T13:23:03;99542.44;;;14.22;100.00
30463;BME280;17256;43.618;25.336;2022-12-10T13:28:22;99441.69;;;13.63;100.00
30463;BME280;17256;43.618;25.336;2022-12-10T13:36:20;99513.13;;;14.04;100.00
30463;BME280;17256;43.618;25.336;2022-12-10T13:47:50;99406.66;;;13.06;100.00
30463;BME280;17256;43.618;25.336;2022-12-10T13:57:34;99546.44;;;13.86;100.00
30463;BME280;17256;43.618;25.336;2022-12-10T13:59:51;99535.81;;;13.78;100.00
30463;BME280;17256;43.618;25.336;2022-12-10T14:02:28;99531.56;;;13.59;100.00
30463;BME280;17256;43.618;25.336;2022-12-10T14:05:21;99523.03;;;13.60;100.00
30463;BME280;17256;43.618;25.336;2022-12-10T14:07:50;99517.66;;;13.53;100.00
30463;BME280;17256;43.618;25.336;2022-12-10T14:10:18;99510.38;;;13.47;100.00
30463;BME280;17256;43.618;25.336;2022-12-10T14:12:48;99342.38;;;12.37;100.00
30463;BME280;17256;43.618;25.336;2022-12-10T14:15:26;99520.31;;;13.48;100.00
30463;BME280;17256;43.618;25.336;2022-12-10T14:18:09;99134.00;;;11.10;100.00
30463;BME280;17256;43.618;25.336;2022-12-10T14:20:47;99141.88;;;11.07;100.00
30463;BME280;17256;43.618;25.336;2022-12-10T14:23:35;99376.59;;;12.53;100.00
30463;BME280;17256;43.618;25.336;2022-12-10T14:28:44;99352.09;;;12.28;100.00
30463;BME280;17256;43.618;25.336;2022-12-10T14:31:18;99373.03;;;12.29;100.00
30463;BME280;17256;43.618;25.336;2022-12-10T14:33:46;99385.25;;;12.45;100.00
30463;BME280;17256;43.618;25.336;2022-12-10T14:36:22;99366.59;;;12.23;100.00
30463;BME280;17256;43.618;25.336;2022-12-10T14:38:50;99526.94;;;13.12;100.00
30463;BME280;17256;43.618;25.336;2022-12-10T14:41:21;99506.94;;;13.05;100.00
30463;BME280;17256;43.618;25.336;2022-12-10T14:43:48;99315.84;;;11.84;100.00
30463;BME280;17256;43.618;25.336;2022-12-10T14:46:18;99495.72;;;12.95;100.00
30463;BME280;17256;43.618;25.336;2022-12-10T14:48:49;99304.94;;;11.66;100.00
30463;BME280;17256;43.618;25.336;2022-12-10T14:51:17;99487.69;;;12.82;100.00
30463;BME280;17256;43.618;25.336;2022-12-10T14:53:48;99317.63;;;11.67;100.00
30463;BME280;17256;43.618;25.336;2022-12-10T14:56:28;99416.25;;;12.28;100.00
30463;BME280;17256;43.618;25.336;2022-12-10T15:01:42;99248.47;;;11.40;100.00
30463;BME280;17256;43.618;25.336;2022-12-10T15:04:14;99450.34;;;12.62;100.00
30463;BME280;17256;43.618;25.336;2022-12-10T15:06:41;99299.22;;;11.67;100.00
30463;BME280;17256;43.618;25.336;2022-12-10T15:09:15;99353.63;;;11.89;100.00
30463;BME280;17256;43.618;25.336;2022-12-10T15:11:42;99248.94;;;11.25;100.00
30463;BME280;17256;43.618;25.336;2022-12-10T15:14:18;99470.44;;;12.63;100.00
30463;BME280;17256;43.618;25.336;2022-12-10T15:16:45;99376.03;;;11.92;100.00
30463;BME280;17256;43.618;25.336;2022-12-10T15:19:24;99239.75;;;11.20;100.00
30463;BME280;17256;43.618;25.336;2022-12-10T15:21:51;99428.44;;;12.32;100.00
30463;BME280;17256;43.618;25.336;2022-12-10T15:24:27;99307.91;;;11.53;100.00
30463;BME280;17256;43.618;25.336;2022-12-10T15:26:53;99461.63;;;12.49;100.00
30463;BME280;17256;43.618;25.336;2022-12-10T15:32:19;99288.50;;;11.36;100.00
30463;BME280;17256;43.618;25.336;2022-12-10T15:35:03;99247.88;;;11.26;100.00
30463;BME280;17256;43.618;25.336;2022-12-10T15:37:35;99288.03;;;11.39;100.00
30463;BME280;17256;43.618;25.336;2022-12-10T15:40:07;99436.56;;;12.39;100.00
30463;BME280;17256;43.618;25.336;2022-12-10T15:47:34;99336.66;;;11.80;100.00
30463;BME280;17256;43.618;25.336;2022-12-10T15:50:04;99352.09;;;12.05;100.00
30463;BME280;17256;43.618;25.336;2022-12-10T15:52:30;99296.31;;;11.62;100.00
30463;BME280;17256;43.618;25.336;2022-12-10T15:54:58;99404.16;;;12.18;100.00
30463;BME280;17256;43.618;25.336;2022-12-10T15:57:36;99269.66;;;11.51;100.00
30463;BME280;17256;43.618;25.336;2022-12-10T16:00:06;99228.00;;;11.13;100.00
30463;BME280;17256;43.618;25.336;2022-12-10T16:02:42;99213.81;;;11.16;100.00
30463;BME280;17256;43.618;25.336;2022-12-10T16:05:26;99396.63;;;12.25;100.00
30463;BME280;17256;43.618;25.336;2022-12-10T16:10:32;99145.03;;;10.57;100.00
30463;BME280;17256;43.618;25.336;2022-12-10T16:13:01;99293.19;;;11.47;100.00
30463;BME280;17256;43.618;25.336;2022-12-10T16:15:31;99394.34;;;12.22;100.00
30463;BME280;17256;43.618;25.336;2022-12-10T16:18:04;99224.78;;;11.04;100.00
30463;BME280;17256;43.618;25.336;2022-12-10T16:20:31;99111.00;;;10.46;100.00
30463;BME280;17256;43.618;25.336;2022-12-10T16:22:58;99213.78;;;11.04;100.00
30463;BME280;17256;43.618;25.336;2022-12-10T16:25:26;99242.97;;;11.28;100.00
30463;BME280;17256;43.618;25.336;2022-12-10T16:27:52;99139.09;;;10.72;100.00
30463;BME280;17256;43.618;25.336;2022-12-10T16:30:35;99363.47;;;12.20;100.00
30463;BME280;17256;43.618;25.336;2022-12-10T16:33:05;99148.31;;;10.89;100.00
30463;BME280;17256;43.618;25.336;2022-12-10T16:35:31;99150.72;;;10.97;100.00
30463;BME280;17256;43.618;25.336;2022-12-10T16:37:56;99149.06;;;10.96;100.00
30463;BME280;17256;43.618;25.336;2022-12-10T16:40:26;99138.31;;;10.95;100.00
30463;BME280;17256;43.618;25.336;2022-12-10T16:42:54;99186.44;;;11.09;100.00
30463;BME280;17256;43.618;25.336;2022-12-10T16:45:39;99106.25;;;10.54;100.00
30463;BME280;17256;43.618;25.336;2022-12-10T16:48:05;99130.94;;;10.65;100.00
30463;BME280;17256;43.618;25.336;2022-12-10T16:50:31;99078.78;;;10.42;100.00
30463;BME280;17256;43.618;25.336;2022-12-10T16:53:02;99321.94;;;11.86;100.00
30463;BME280;17256;43.618;25.336;2022-12-10T16:55:28;99019.06;;;9.84;100.00
30463;BME280;17256;43.618;25.336;2022-12-10T16:57:54;99140.31;;;10.76;100.00
30463;BME280;17256;43.618;25.336;2022-12-10T17:00:22;99139.09;;;10.72;100.00
30463;BME280;17256;43.618;25.336;2022-12-10T17:02:56;99067.94;;;10.17;100.00
30463;BME280;17256;43.618;25.336;2022-12-10T17:05:39;99064.44;;;10.10;100.00
30463;BME280;17256;43.618;25.336;2022-12-10T17:08:07;99310.56;;;11.71;100.00
30463;BME280;17256;43.618;25.336;2022-12-10T17:10:33;99196.22;;;10.93;100.00
30463;BME280;17256;43.618;25.336;2022-12-10T17:13:21;99149.84;;;10.85;100.00
30463;BME280;17256;43.618;25.336;2022-12-10T17:15:47;99297.19;;;12.10;100.00
30463;BME280;17256;43.618;25.336;2022-12-10T17:18:16;99042.41;;;10.46;100.00
30463;BME280;17256;43.618;25.336;2022-12-10T17:20:43;99238.94;;;11.54;100.00
30463;BME280;17256;43.618;25.336;2022-12-10T17:23:09;99140.53;;;10.74;100.00
30463;BME280;17256;43.618;25.336;2022-12-10T17:25:36;99104.31;;;10.42;100.00
30463;BME280;17256;43.618;25.336;2022-12-10T17:28:04;99312.94;;;11.56;100.00
30463;BME280;17256;43.618;25.336;2022-12-10T17:30:30;99092.00;;;10.15;100.00
30463;BME280;17256;43.618;25.336;2022-12-10T17:32:55;99110.22;;;10.28;100.00
30463;BME280;17256;43.618;25.336;2022-12-10T17:35:21;99313.56;;;12.28;100.00
30463;BME280;17256;43.618;25.336;2022-12-10T17:37:47;99079.41;;;11.14;100.00
30463;BME280;17256;43.618;25.336;2022-12-10T17:40:21;99107.22;;;11.53;100.00
30463;BME280;17256;43.618;25.336;2022-12-10T17:42:48;99151.81;;;12.63;100.00
30463;BME280;17256;43.618;25.336;2022-12-10T17:45:16;99119.84;;;12.62;100.00